sensor_id;sensor_type;location;lat;lon;timestamp;pressure;altitude;pressure_sealevel;temperature;humidity
71948;BME280;63257;55.082;38.772;2023-02-23T00:01:39;99674.63;;;-13.46;66.77
71948;BME280;63257;55.082;38.772;2023-02-23T00:04:05;99676.44;;;-13.44;66.61
71948;BME280;63257;55.082;38.772;2023-02-23T00:06:34;99676.50;;;-13.42;66.70
71948;BME280;63257;55.082;38.772;2023-02-23T00:09:01;99681.22;;;-13.52;66.82
71948;BME280;63257;55.082;38.772;2023-02-23T00:11:33;99682.94;;;-13.51;66.72
71948;BME280;63257;55.082;38.772;2023-02-23T00:13:59;99680.19;;;-13.57;66.64
71948;BME280;63257;55.082;38.772;2023-02-23T00:16:25;99681.91;;;-13.56;67.07
71948;BME280;63257;55.082;38.772;2023-02-23T00:18:54;99691.09;;;-13.59;67.01
71948;BME280;63257;55.082;38.772;2023-02-23T00:21:23;99683.72;;;-13.74;66.94
71948;BME280;63257;55.082;38.772;2023-02-23T00:26:20;99682.72;;;-13.57;67.04
71948;BME280;63257;55.082;38.772;2023-02-23T00:28:48;99684.94;;;-13.65;66.69
71948;BME280;63257;55.082;38.772;2023-02-23T00:31:16;99698.63;;;-13.61;66.97
71948;BME280;63257;55.082;38.772;2023-02-23T00:33:43;99689.28;;;-13.62;67.07
71948;BME280;63257;55.082;38.772;2023-02-23T00:36:12;99700.50;;;-13.57;67.00
71948;BME280;63257;55.082;38.772;2023-02-23T00:38:39;99689.53;;;-13.56;66.45
71948;BME280;63257;55.082;38.772;2023-02-23T00:41:10;99692.75;;;-13.60;67.14
71948;BME280;63257;55.082;38.772;2023-02-23T00:43:40;99706.31;;;-13.59;67.40
71948;BME280;63257;55.082;38.772;2023-02-23T00:46:15;99695.31;;;-13.60;66.79
71948;BME280;63257;55.082;38.772;2023-02-23T00:48:47;99699.69;;;-13.56;66.61
71948;BME280;63257;55.082;38.772;2023-02-23T00:51:14;99687.91;;;-13.54;66.60
71948;BME280;63257;55.082;38.772;2023-02-23T00:53:41;99700.28;;;-13.61;67.03
71948;BME280;63257;55.082;38.772;2023-02-23T00:56:09;99701.28;;;-13.58;66.99
71948;BME280;63257;55.082;38.772;2023-02-23T00:58:36;99708.53;;;-13.67;67.33
71948;BME280;63257;55.082;38.772;2023-02-23T01:01:10;99713.56;;;-13.69;67.01
71948;BME280;63257;55.082;38.772;2023-02-23T01:03:37;99696.41;;;-13.74;67.33
71948;BME280;63257;55.082;38.772;2023-02-23T01:06:06;99709.84;;;-13.77;67.34
71948;BME280;63257;55.082;38.772;2023-02-23T01:08:39;99719.56;;;-13.67;66.93
71948;BME280;63257;55.082;38.772;2023-02-23T01:11:11;99693.38;;;-13.87;67.23
71948;BME280;63257;55.082;38.772;2023-02-23T01:13:38;99700.00;;;-13.90;67.45
71948;BME280;63257;55.082;38.772;2023-02-23T01:16:06;99705.50;;;-13.79;67.30
71948;BME280;63257;55.082;38.772;2023-02-23T01:18:33;99700.19;;;-13.86;67.51
71948;BME280;63257;55.082;38.772;2023-02-23T01:21:01;99710.56;;;-13.79;67.54
71948;BME280;63257;55.082;38.772;2023-02-23T01:23:27;99729.16;;;-13.80;67.62
71948;BME280;63257;55.082;38.772;2023-02-23T01:25:53;99720.63;;;-13.83;67.98
71948;BME280;63257;55.082;38.772;2023-02-23T01:28:19;99718.69;;;-13.88;67.61
71948;BME280;63257;55.082;38.772;2023-02-23T01:30:44;99705.50;;;-14.01;68.21
71948;BME280;63257;55.082;38.772;2023-02-23T01:33:10;99734.09;;;-13.84;67.83
71948;BME280;63257;55.082;38.772;2023-02-23T01:35:38;99720.63;;;-13.83;67.96
71948;BME280;63257;55.082;38.772;2023-02-23T01:38:04;99728.50;;;-13.76;67.71
71948;BME280;63257;55.082;38.772;2023-02-23T01:40:31;99726.47;;;-13.84;68.36
71948;BME280;63257;55.082;38.772;2023-02-23T01:43:05;99706.50;;;-13.97;68.27
71948;BME280;63257;55.082;38.772;2023-02-23T01:45:38;99736.47;;;-13.88;67.98
71948;BME280;63257;55.082;38.772;2023-02-23T01:53:16;99705.13;;;-14.10;68.56
71948;BME280;63257;55.082;38.772;2023-02-23T01:55:45;99756.69;;;-13.90;68.39
71948;BME280;63257;55.082;38.772;2023-02-23T01:58:15;99757.44;;;-13.92;68.18
71948;BME280;63257;55.082;38.772;2023-02-23T02:00:49;99736.00;;;-13.99;68.38
71948;BME280;63257;55.082;38.772;2023-02-23T02:03:23;99752.19;;;-13.97;68.30
71948;BME280;63257;55.082;38.772;2023-02-23T02:05:52;99744.28;;;-14.03;68.22
71948;BME280;63257;55.082;38.772;2023-02-23T02:08:21;99728.41;;;-13.99;68.01
71948;BME280;63257;55.082;38.772;2023-02-23T02:10:52;99757.38;;;-13.94;68.28
71948;BME280;63257;55.082;38.772;2023-02-23T02:13:29;99762.44;;;-13.94;68.93
71948;BME280;63257;55.082;38.772;2023-02-23T02:19:06;99767.13;;;-14.03;68.54
71948;BME280;63257;55.082;38.772;2023-02-23T02:21:54;99722.13;;;-14.28;68.68
71948;BME280;63257;55.082;38.772;2023-02-23T02:33:00;99743.53;;;-14.22;68.87
71948;BME280;63257;55.082;38.772;2023-02-23T02:36:39;99784.53;;;-14.11;69.00
71948;BME280;63257;55.082;38.772;2023-02-23T02:41:56;99739.66;;;-14.53;69.09
71948;BME280;63257;55.082;38.772;2023-02-23T02:50:13;99790.91;;;-14.40;69.58
71948;BME280;63257;55.082;38.772;2023-02-23T02:52:46;99782.63;;;-14.36;69.21
71948;BME280;63257;55.082;38.772;2023-02-23T02:55:25;99795.19;;;-14.39;69.42
71948;BME280;63257;55.082;38.772;2023-02-23T02:57:56;99784.91;;;-14.42;69.02
71948;BME280;63257;55.082;38.772;2023-02-23T03:00:29;99790.66;;;-14.46;69.26
71948;BME280;63257;55.082;38.772;2023-02-23T03:03:37;99794.88;;;-14.45;69.63
71948;BME280;63257;55.082;38.772;2023-02-23T03:06:31;99778.28;;;-14.58;69.69
71948;BME280;63257;55.082;38.772;2023-02-23T03:09:53;99795.06;;;-14.42;69.75
71948;BME280;63257;55.082;38.772;2023-02-23T03:12:42;99797.78;;;-14.57;69.81
71948;BME280;63257;55.082;38.772;2023-02-23T03:21:25;99821.22;;;-14.63;69.63
71948;BME280;63257;55.082;38.772;2023-02-23T03:24:16;99817.16;;;-14.58;70.21
71948;BME280;63257;55.082;38.772;2023-02-23T03:28:02;99818.78;;;-14.60;69.57
71948;BME280;63257;55.082;38.772;2023-02-23T03:40:11;99813.94;;;-15.11;70.88
71948;BME280;63257;55.082;38.772;2023-02-23T03:42:59;99812.91;;;-15.14;71.25
71948;BME280;63257;55.082;38.772;2023-02-23T03:45:45;99822.84;;;-15.19;71.58
71948;BME280;63257;55.082;38.772;2023-02-23T03:48:33;99811.88;;;-15.18;71.02
71948;BME280;63257;55.082;38.772;2023-02-23T03:51:20;99812.03;;;-15.33;71.37
71948;BME280;63257;55.082;38.772;2023-02-23T03:54:12;99826.22;;;-15.19;71.68
71948;BME280;63257;55.082;38.772;2023-02-23T03:57:01;99803.81;;;-15.29;71.62
71948;BME280;63257;55.082;38.772;2023-02-23T03:59:52;99817.59;;;-15.22;71.21
71948;BME280;63257;55.082;38.772;2023-02-23T04:02:44;99829.59;;;-15.18;71.61
71948;BME280;63257;55.082;38.772;2023-02-23T04:05:30;99812.03;;;-15.33;71.61
71948;BME280;63257;55.082;38.772;2023-02-23T04:08:17;99813.47;;;-15.38;71.57
71948;BME280;63257;55.082;38.772;2023-02-23T04:11:14;99835.53;;;-15.36;72.17
71948;BME280;63257;55.082;38.772;2023-02-23T04:14:04;99818.59;;;-15.55;71.90
71948;BME280;63257;55.082;38.772;2023-02-23T04:16:33;99827.06;;;-15.36;71.94
71948;BME280;63257;55.082;38.772;2023-02-23T04:18:59;99854.25;;;-15.32;71.56
71948;BME280;63257;55.082;38.772;2023-02-23T04:21:25;99840.28;;;-15.42;71.79
71948;BME280;63257;55.082;38.772;2023-02-23T04:23:51;99844.81;;;-15.53;72.20
71948;BME280;63257;55.082;38.772;2023-02-23T04:26:17;99830.53;;;-15.52;72.68
71948;BME280;63257;55.082;38.772;2023-02-23T04:28:43;99838.47;;;-15.44;72.20
71948;BME280;63257;55.082;38.772;2023-02-23T04:31:08;99852.66;;;-15.48;71.62
71948;BME280;63257;55.082;38.772;2023-02-23T04:33:34;99842.47;;;-15.49;71.64
71948;BME280;63257;55.082;38.772;2023-02-23T04:36:01;99843.41;;;-15.47;72.12
71948;BME280;63257;55.082;38.772;2023-02-23T04:38:27;99824.56;;;-15.71;72.13
71948;BME280;63257;55.082;38.772;2023-02-23T04:40:53;99843.75;;;-15.58;71.64
71948;BME280;63257;55.082;38.772;2023-02-23T04:43:19;99844.69;;;-15.56;72.19
71948;BME280;63257;55.082;38.772;2023-02-23T04:45:45;99834.78;;;-15.51;71.89
71948;BME280;63257;55.082;38.772;2023-02-23T04:48:12;99851.06;;;-15.46;72.17
71948;BME280;63257;55.082;38.772;2023-02-23T04:50:37;99839.94;;;-15.49;71.98
71948;BME280;63257;55.082;38.772;2023-02-23T04:53:04;99852.41;;;-15.53;72.09
71948;BME280;63257;55.082;38.772;2023-02-23T04:55:30;99840.94;;;-15.46;71.64
71948;BME280;63257;55.082;38.772;2023-02-23T04:57:58;99861.34;;;-15.43;71.49
71948;BME280;63257;55.082;38.772;2023-02-23T05:00:26;99854.09;;;-15.53;71.42
71948;BME280;63257;55.082;38.772;2023-02-23T05:02:52;99854.03;;;-15.55;71.43
71948;BME280;63257;55.082;38.772;2023-02-23T05:05:18;99858.00;;;-15.42;71.84
71948;BME280;63257;55.082;38.772;2023-02-23T05:07:44;99852.38;;;-15.36;71.19
71948;BME280;63257;55.082;38.772;2023-02-23T05:10:10;99853.28;;;-15.36;70.59
71948;BME280;63257;55.082;38.772;2023-02-23T05:12:37;99860.22;;;-15.31;70.76
71948;BME280;63257;55.082;38.772;2023-02-23T05:15:03;99863.28;;;-15.21;70.69
71948;BME280;63257;55.082;38.772;2023-02-23T05:17:30;99864.84;;;-15.23;70.81
71948;BME280;63257;55.082;38.772;2023-02-23T05:20:00;99864.84;;;-15.23;69.98
71948;BME280;63257;55.082;38.772;2023-02-23T05:22:25;99867.00;;;-15.30;70.39
71948;BME280;63257;55.082;38.772;2023-02-23T05:24:51;99872.00;;;-15.32;70.94
71948;BME280;63257;55.082;38.772;2023-02-23T05:27:17;99879.19;;;-15.23;70.73
71948;BME280;63257;55.082;38.772;2023-02-23T05:29:43;99870.38;;;-15.13;70.34
71948;BME280;63257;55.082;38.772;2023-02-23T05:32:09;99880.50;;;-15.13;70.02
71948;BME280;63257;55.082;38.772;2023-02-23T05:34:35;99881.09;;;-15.01;70.05
71948;BME280;63257;55.082;38.772;2023-02-23T05:37:02;99885.25;;;-15.02;69.67
71948;BME280;63257;55.082;38.772;2023-02-23T05:39:28;99878.75;;;-14.96;69.42
71948;BME280;63257;55.082;38.772;2023-02-23T05:41:54;99882.25;;;-14.94;69.53
71948;BME280;63257;55.082;38.772;2023-02-23T05:44:20;99888.31;;;-14.91;70.09
71948;BME280;63257;55.082;38.772;2023-02-23T05:46:46;99873.03;;;-14.92;69.72
71948;BME280;63257;55.082;38.772;2023-02-23T05:49:12;99881.47;;;-14.75;69.45
71948;BME280;63257;55.082;38.772;2023-02-23T05:51:38;99890.06;;;-14.72;69.39
71948;BME280;63257;55.082;38.772;2023-02-23T05:54:07;99890.34;;;-14.65;69.36
71948;BME280;63257;55.082;38.772;2023-02-23T05:56:33;99886.00;;;-14.68;69.49
71948;BME280;63257;55.082;38.772;2023-02-23T05:58:59;99896.28;;;-14.65;69.45
71948;BME280;63257;55.082;38.772;2023-02-23T06:01:27;99893.03;;;-14.62;69.59
71948;BME280;63257;55.082;38.772;2023-02-23T06:03:53;99890.59;;;-14.59;69.39
71948;BME280;63257;55.082;38.772;2023-02-23T06:06:18;99884.28;;;-14.50;68.78
71948;BME280;63257;55.082;38.772;2023-02-23T06:08:45;99902.47;;;-14.58;69.03
71948;BME280;63257;55.082;38.772;2023-02-23T06:11:11;99901.03;;;-14.53;69.16
71948;BME280;63257;55.082;38.772;2023-02-23T06:13:37;99887.41;;;-14.55;68.76
71948;BME280;63257;55.082;38.772;2023-02-23T06:16:03;99867.72;;;-14.61;68.95
71948;BME280;63257;55.082;38.772;2023-02-23T06:18:29;99907.72;;;-14.36;68.46
71948;BME280;63257;55.082;38.772;2023-02-23T06:20:58;99883.19;;;-14.37;68.41
71948;BME280;63257;55.082;38.772;2023-02-23T06:23:26;99898.91;;;-14.26;68.03
71948;BME280;63257;55.082;38.772;2023-02-23T06:25:54;99901.56;;;-14.23;67.42
71948;BME280;63257;55.082;38.772;2023-02-23T06:28:23;99900.41;;;-14.29;67.79
71948;BME280;63257;55.082;38.772;2023-02-23T06:30:52;99911.84;;;-14.20;67.65
71948;BME280;63257;55.082;38.772;2023-02-23T06:33:18;99903.03;;;-14.08;67.69
71948;BME280;63257;55.082;38.772;2023-02-23T06:35:44;99892.50;;;-14.18;67.63
71948;BME280;63257;55.082;38.772;2023-02-23T06:38:10;99902.78;;;-13.95;66.75
71948;BME280;63257;55.082;38.772;2023-02-23T06:40:40;99900.53;;;-13.89;66.92
71948;BME280;63257;55.082;38.772;2023-02-23T06:43:07;99922.78;;;-13.83;66.47
71948;BME280;63257;55.082;38.772;2023-02-23T06:45:33;99909.31;;;-14.00;66.58
71948;BME280;63257;55.082;38.772;2023-02-23T06:47:59;99927.31;;;-13.76;66.86
71948;BME280;63257;55.082;38.772;2023-02-23T06:50:26;99912.56;;;-13.65;66.41
71948;BME280;63257;55.082;38.772;2023-02-23T06:52:52;99920.72;;;-13.72;66.32
71948;BME280;63257;55.082;38.772;2023-02-23T06:55:17;99863.97;;;-13.73;65.47
71948;BME280;63257;55.082;38.772;2023-02-23T06:57:43;99927.44;;;-13.53;65.54
71948;BME280;63257;55.082;38.772;2023-02-23T07:00:10;99910.84;;;-13.45;65.74
71948;BME280;63257;55.082;38.772;2023-02-23T07:02:40;99927.53;;;-13.52;65.73
71948;BME280;63257;55.082;38.772;2023-02-23T07:05:07;99915.41;;;-13.38;65.45
71948;BME280;63257;55.082;38.772;2023-02-23T07:07:33;99925.91;;;-13.28;65.22
71948;BME280;63257;55.082;38.772;2023-02-23T07:09:59;99917.00;;;-13.19;65.48
71948;BME280;63257;55.082;38.772;2023-02-23T07:12:25;99927.13;;;-12.99;64.92
71948;BME280;63257;55.082;38.772;2023-02-23T07:14:51;99930.22;;;-13.06;64.51
71948;BME280;63257;55.082;38.772;2023-02-23T07:17:17;99923.91;;;-12.95;64.53
71948;BME280;63257;55.082;38.772;2023-02-23T07:19:43;99923.69;;;-13.00;64.87
71948;BME280;63257;55.082;38.772;2023-02-23T07:22:11;99935.66;;;-12.97;65.00
71948;BME280;63257;55.082;38.772;2023-02-23T07:24:39;99947.09;;;-12.66;64.16
71948;BME280;63257;55.082;38.772;2023-02-23T07:27:05;99922.03;;;-12.78;63.75
71948;BME280;63257;55.082;38.772;2023-02-23T07:29:31;99950.44;;;-12.67;64.04
71948;BME280;63257;55.082;38.772;2023-02-23T07:31:57;99938.56;;;-12.67;64.00
71948;BME280;63257;55.082;38.772;2023-02-23T07:34:22;99940.00;;;-12.52;63.48
71948;BME280;63257;55.082;38.772;2023-02-23T07:36:48;99957.97;;;-12.48;64.16
71948;BME280;63257;55.082;38.772;2023-02-23T07:39:14;99953.03;;;-12.44;63.37
71948;BME280;63257;55.082;38.772;2023-02-23T07:41:40;99967.03;;;-12.33;63.47
71948;BME280;63257;55.082;38.772;2023-02-23T07:44:16;99955.47;;;-12.25;63.33
71948;BME280;63257;55.082;38.772;2023-02-23T07:46:42;99957.06;;;-12.27;62.92
71948;BME280;63257;55.082;38.772;2023-02-23T07:49:07;99973.56;;;-12.17;63.06
71948;BME280;63257;55.082;38.772;2023-02-23T07:51:33;99976.03;;;-12.19;62.85
71948;BME280;63257;55.082;38.772;2023-02-23T07:54:03;99983.94;;;-12.34;62.91
71948;BME280;63257;55.082;38.772;2023-02-23T07:56:29;99976.31;;;-12.13;63.27
71948;BME280;63257;55.082;38.772;2023-02-23T07:58:57;99968.88;;;-12.06;62.31
71948;BME280;63257;55.082;38.772;2023-02-23T08:01:23;99978.16;;;-11.84;62.23
71948;BME280;63257;55.082;38.772;2023-02-23T08:03:49;99974.66;;;-11.88;62.23
71948;BME280;63257;55.082;38.772;2023-02-23T08:06:16;99983.69;;;-11.72;62.11
71948;BME280;63257;55.082;38.772;2023-02-23T08:08:42;99975.75;;;-11.81;61.88
71948;BME280;63257;55.082;38.772;2023-02-23T08:11:11;99977.81;;;-11.71;62.08
71948;BME280;63257;55.082;38.772;2023-02-23T08:13:37;99952.66;;;-11.86;62.22
71948;BME280;63257;55.082;38.772;2023-02-23T08:16:03;99916.53;;;-12.00;61.87
71948;BME280;63257;55.082;38.772;2023-02-23T08:18:29;99980.28;;;-11.50;61.51
71948;BME280;63257;55.082;38.772;2023-02-23T08:21:02;99953.22;;;-11.46;61.25
71948;BME280;63257;55.082;38.772;2023-02-23T08:23:30;99984.34;;;-11.31;61.46
71948;BME280;63257;55.082;38.772;2023-02-23T08:25:56;99967.28;;;-11.33;61.16
71948;BME280;63257;55.082;38.772;2023-02-23T08:28:22;99971.25;;;-11.16;61.19
71948;BME280;63257;55.082;38.772;2023-02-23T08:30:50;99982.59;;;-11.07;61.02
71948;BME280;63257;55.082;38.772;2023-02-23T08:33:16;99965.63;;;-11.07;61.26
71948;BME280;63257;55.082;38.772;2023-02-23T08:35:42;99980.38;;;-10.98;60.93
71948;BME280;63257;55.082;38.772;2023-02-23T08:38:12;99979.69;;;-10.93;60.65
71948;BME280;63257;55.082;38.772;2023-02-23T08:40:38;99985.66;;;-10.66;60.50
71948;BME280;63257;55.082;38.772;2023-02-23T08:43:04;99998.22;;;-10.72;60.05
71948;BME280;63257;55.082;38.772;2023-02-23T08:45:30;99974.91;;;-10.58;60.11
71948;BME280;63257;55.082;38.772;2023-02-23T08:47:55;99996.78;;;-10.38;59.40
71948;BME280;63257;55.082;38.772;2023-02-23T08:50:22;99966.88;;;-10.43;59.11
71948;BME280;63257;55.082;38.772;2023-02-23T08:52:48;99990.09;;;-10.33;59.43
71948;BME280;63257;55.082;38.772;2023-02-23T08:55:14;99986.94;;;-10.26;59.31
71948;BME280;63257;55.082;38.772;2023-02-23T08:57:42;99992.22;;;-10.20;59.67
71948;BME280;63257;55.082;38.772;2023-02-23T09:00:08;99984.84;;;-10.11;59.48
71948;BME280;63257;55.082;38.772;2023-02-23T09:02:43;99938.19;;;-10.35;59.17
71948;BME280;63257;55.082;38.772;2023-02-23T09:05:10;99989.41;;;-10.00;58.27
71948;BME280;63257;55.082;38.772;2023-02-23T09:07:37;99983.00;;;-9.87;58.82
71948;BME280;63257;55.082;38.772;2023-02-23T09:10:03;99992.34;;;-10.15;58.79
71948;BME280;63257;55.082;38.772;2023-02-23T09:12:29;99995.13;;;-9.80;59.06
71948;BME280;63257;55.082;38.772;2023-02-23T09:14:55;99994.03;;;-9.58;58.17
71948;BME280;63257;55.082;38.772;2023-02-23T09:17:21;99981.28;;;-9.58;58.17
71948;BME280;63257;55.082;38.772;2023-02-23T09:19:48;100011.06;;;-9.59;57.48
71948;BME280;63257;55.082;38.772;2023-02-23T09:22:14;99987.56;;;-9.76;58.30
71948;BME280;63257;55.082;38.772;2023-02-23T09:24:43;99980.91;;;-9.70;58.39
71948;BME280;63257;55.082;38.772;2023-02-23T09:27:10;99992.06;;;-9.68;58.29
71948;BME280;63257;55.082;38.772;2023-02-23T09:29:39;99982.94;;;-9.60;58.32
71948;BME280;63257;55.082;38.772;2023-02-23T09:32:09;99966.06;;;-9.53;58.01
71948;BME280;63257;55.082;38.772;2023-02-23T09:34:36;99967.78;;;-9.52;57.86
71948;BME280;63257;55.082;38.772;2023-02-23T09:37:02;99970.44;;;-9.49;57.66
71948;BME280;63257;55.082;38.772;2023-02-23T09:39:28;99984.97;;;-9.47;57.73
71948;BME280;63257;55.082;38.772;2023-02-23T09:47:44;99975.94;;;-9.35;57.14
71948;BME280;63257;55.082;38.772;2023-02-23T09:50:24;99986.41;;;-9.26;57.26
71948;BME280;63257;55.082;38.772;2023-02-23T09:52:55;99957.72;;;-9.16;56.68
71948;BME280;63257;55.082;38.772;2023-02-23T09:55:23;99970.66;;;-8.78;56.76
71948;BME280;63257;55.082;38.772;2023-02-23T09:57:50;99989.41;;;-8.77;55.32
71948;BME280;63257;55.082;38.772;2023-02-23T10:00:22;99990.94;;;-8.84;55.83
71948;BME280;63257;55.082;38.772;2023-02-23T10:03:12;99982.00;;;-9.00;56.14
71948;BME280;63257;55.082;38.772;2023-02-23T10:05:48;99988.63;;;-8.75;55.97
71948;BME280;63257;55.082;38.772;2023-02-23T10:08:28;99968.56;;;-8.58;55.35
71948;BME280;63257;55.082;38.772;2023-02-23T10:16:48;100001.31;;;-8.43;54.63
71948;BME280;63257;55.082;38.772;2023-02-23T10:19:43;99977.13;;;-8.19;54.78
71948;BME280;63257;55.082;38.772;2023-02-23T10:22:14;99977.97;;;-8.20;53.35
71948;BME280;63257;55.082;38.772;2023-02-23T10:24:44;99965.75;;;-8.30;54.11
71948;BME280;63257;55.082;38.772;2023-02-23T10:27:17;99992.47;;;-8.19;53.98
71948;BME280;63257;55.082;38.772;2023-02-23T10:29:48;99997.25;;;-8.35;54.29
71948;BME280;63257;55.082;38.772;2023-02-23T10:35:11;99971.97;;;-7.81;53.88
71948;BME280;63257;55.082;38.772;2023-02-23T10:37:37;100001.41;;;-8.03;53.26
71948;BME280;63257;55.082;38.772;2023-02-23T10:40:04;99999.00;;;-7.95;53.22
71948;BME280;63257;55.082;38.772;2023-02-23T10:42:31;99990.38;;;-7.99;53.45
71948;BME280;63257;55.082;38.772;2023-02-23T10:44:58;99971.28;;;-7.74;53.02
71948;BME280;63257;55.082;38.772;2023-02-23T10:47:31;99976.22;;;-7.42;52.87
71948;BME280;63257;55.082;38.772;2023-02-23T10:49:58;99971.16;;;-7.39;51.82
71948;BME280;63257;55.082;38.772;2023-02-23T10:52:40;99968.63;;;-7.36;51.74
71948;BME280;63257;55.082;38.772;2023-02-23T10:55:29;99973.75;;;-7.37;51.75
71948;BME280;63257;55.082;38.772;2023-02-23T10:58:16;99966.75;;;-7.46;51.56
71948;BME280;63257;55.082;38.772;2023-02-23T11:00:58;99957.34;;;-7.45;51.48
71948;BME280;63257;55.082;38.772;2023-02-23T11:03:45;99959.47;;;-7.23;51.39
71948;BME280;63257;55.082;38.772;2023-02-23T11:06:36;99945.84;;;-7.20;50.99
71948;BME280;63257;55.082;38.772;2023-02-23T11:09:26;99949.41;;;-7.12;50.87
71948;BME280;63257;55.082;38.772;2023-02-23T11:12:13;99962.66;;;-6.89;50.23
71948;BME280;63257;55.082;38.772;2023-02-23T11:14:41;99934.56;;;-7.28;50.74
71948;BME280;63257;55.082;38.772;2023-02-23T11:17:29;99955.91;;;-6.84;50.24
71948;BME280;63257;55.082;38.772;2023-02-23T11:19:58;99954.19;;;-6.83;50.30
71948;BME280;63257;55.082;38.772;2023-02-23T11:22:25;99954.97;;;-6.87;50.32
71948;BME280;63257;55.082;38.772;2023-02-23T11:24:55;99954.34;;;-6.74;50.67
71948;BME280;63257;55.082;38.772;2023-02-23T11:27:25;99957.53;;;-6.87;50.18
71948;BME280;63257;55.082;38.772;2023-02-23T11:29:54;99951.03;;;-6.67;50.27
71948;BME280;63257;55.082;38.772;2023-02-23T11:37:40;99964.56;;;-6.78;50.08
71948;BME280;63257;55.082;38.772;2023-02-23T11:40:27;99972.16;;;-6.83;50.02
71948;BME280;63257;55.082;38.772;2023-02-23T11:43:06;99967.09;;;-6.80;50.27
71948;BME280;63257;55.082;38.772;2023-02-23T11:45:38;99971.97;;;-6.94;49.79
71948;BME280;63257;55.082;38.772;2023-02-23T11:48:22;99968.50;;;-6.97;50.13
71948;BME280;63257;55.082;38.772;2023-02-23T11:50:51;99965.75;;;-7.07;50.27
71948;BME280;63257;55.082;38.772;2023-02-23T11:53:23;99971.25;;;-6.88;49.89
71948;BME280;63257;55.082;38.772;2023-02-23T11:55:54;99967.59;;;-6.51;49.18
71948;BME280;63257;55.082;38.772;2023-02-23T12:01:08;99963.22;;;-5.97;47.17
71948;BME280;63257;55.082;38.772;2023-02-23T12:03:42;99956.22;;;-5.41;47.07
71948;BME280;63257;55.082;38.772;2023-02-23T12:06:09;99981.91;;;-5.44;45.88
71948;BME280;63257;55.082;38.772;2023-02-23T12:08:40;99962.53;;;-5.83;46.75
71948;BME280;63257;55.082;38.772;2023-02-23T12:11:22;99962.75;;;-5.68;46.81
71948;BME280;63257;55.082;38.772;2023-02-23T12:16:22;99977.91;;;-5.19;44.96
71948;BME280;63257;55.082;38.772;2023-02-23T12:23:57;99952.59;;;-5.55;45.65
71948;BME280;63257;55.082;38.772;2023-02-23T12:26:26;99976.78;;;-5.42;45.59
71948;BME280;63257;55.082;38.772;2023-02-23T12:29:03;99966.72;;;-5.22;44.81
71948;BME280;63257;55.082;38.772;2023-02-23T12:31:42;99955.63;;;-5.17;44.65
71948;BME280;63257;55.082;38.772;2023-02-23T12:34:26;99969.41;;;-5.12;44.10
71948;BME280;63257;55.082;38.772;2023-02-23T12:37:17;99978.88;;;-5.07;43.83
71948;BME280;63257;55.082;38.772;2023-02-23T12:39:49;99984.88;;;-5.10;43.37
71948;BME280;63257;55.082;38.772;2023-02-23T12:42:25;99979.81;;;-5.01;43.24
71948;BME280;63257;55.082;38.772;2023-02-23T12:44:59;99972.09;;;-5.02;43.17
71948;BME280;63257;55.082;38.772;2023-02-23T12:58:23;99976.53;;;-4.86;42.17
71948;BME280;63257;55.082;38.772;2023-02-23T13:01:01;99944.94;;;-4.71;41.61
71948;BME280;63257;55.082;38.772;2023-02-23T13:28:28;99938.22;;;-4.49;40.23
71948;BME280;63257;55.082;38.772;2023-02-23T13:30:57;99946.81;;;-4.50;40.37
71948;BME280;63257;55.082;38.772;2023-02-23T13:33:27;99957.81;;;-4.69;40.71
71948;BME280;63257;55.082;38.772;2023-02-23T13:35:56;99946.69;;;-4.64;40.85
71948;BME280;63257;55.082;38.772;2023-02-23T13:38:52;99947.88;;;-4.21;40.16
71948;BME280;63257;55.082;38.772;2023-02-23T13:41:40;99943.50;;;-4.30;39.96
71948;BME280;63257;55.082;38.772;2023-02-23T13:44:31;99936.59;;;-4.39;40.68
71948;BME280;63257;55.082;38.772;2023-02-23T13:49:53;99956.69;;;-3.88;39.79
71948;BME280;63257;55.082;38.772;2023-02-23T13:52:31;99954.03;;;-3.98;39.51
71948;BME280;63257;55.082;38.772;2023-02-23T13:55:03;99949.81;;;-3.86;39.47
71948;BME280;63257;55.082;38.772;2023-02-23T13:57:42;99966.88;;;-4.07;39.64
71948;BME280;63257;55.082;38.772;2023-02-23T14:00:18;99965.84;;;-4.29;40.31
71948;BME280;63257;55.082;38.772;2023-02-23T14:02:45;99966.34;;;-4.75;41.25
71948;BME280;63257;55.082;38.772;2023-02-23T14:07:43;99961.75;;;-5.77;43.97
71948;BME280;63257;55.082;38.772;2023-02-23T14:13:03;99964.41;;;-6.36;45.34
71948;BME280;63257;55.082;38.772;2023-02-23T14:15:42;99959.84;;;-6.52;45.96
71948;BME280;63257;55.082;38.772;2023-02-23T14:20:51;99949.06;;;-6.83;47.31
71948;BME280;63257;55.082;38.772;2023-02-23T14:25:51;99967.63;;;-6.98;47.90
71948;BME280;63257;55.082;38.772;2023-02-23T14:41:53;99966.78;;;-7.43;49.35
71948;BME280;63257;55.082;38.772;2023-02-23T14:46:56;99962.03;;;-7.67;49.99
71948;BME280;63257;55.082;38.772;2023-02-23T14:49:27;99959.50;;;-7.64;50.02
71948;BME280;63257;55.082;38.772;2023-02-23T14:51:57;99954.28;;;-7.70;50.34
71948;BME280;63257;55.082;38.772;2023-02-23T14:54:38;99956.75;;;-7.75;50.61
71948;BME280;63257;55.082;38.772;2023-02-23T14:57:16;99935.94;;;-7.89;50.61
71948;BME280;63257;55.082;38.772;2023-02-23T14:59:43;99958.97;;;-7.90;50.79
71948;BME280;63257;55.082;38.772;2023-02-23T15:02:30;99954.59;;;-7.94;50.77
71948;BME280;63257;55.082;38.772;2023-02-23T15:05:14;99955.09;;;-8.11;51.48
71948;BME280;63257;55.082;38.772;2023-02-23T15:07:41;99955.94;;;-8.12;51.71
71948;BME280;63257;55.082;38.772;2023-02-23T15:10:27;99954.28;;;-8.10;51.90
71948;BME280;63257;55.082;38.772;2023-02-23T15:12:54;99963.50;;;-8.16;52.09
71948;BME280;63257;55.082;38.772;2023-02-23T15:15:23;99966.00;;;-8.20;52.31
71948;BME280;63257;55.082;38.772;2023-02-23T15:18:29;99954.97;;;-8.17;52.38
71948;BME280;63257;55.082;38.772;2023-02-23T15:20:57;99979.56;;;-8.24;52.54
71948;BME280;63257;55.082;38.772;2023-02-23T15:23:23;99959.00;;;-8.28;52.60
71948;BME280;63257;55.082;38.772;2023-02-23T15:25:49;99964.19;;;-8.25;52.83